createdAt,value
2018-04-13T00:00:01.581Z,21.70
2018-04-13T00:01:07.081Z,20.40
2018-04-13T00:02:12.599Z,19.50
2018-04-13T00:03:18.123Z,20.20
2018-04-13T00:04:23.623Z,20.20
2018-04-13T00:05:29.139Z,19.80
2018-04-13T00:06:34.651Z,19.70
2018-04-13T00:07:40.170Z,20.30
2018-04-13T00:08:45.678Z,20.60
2018-04-13T00:09:51.192Z,20.80
2018-04-13T00:10:56.703Z,21.40
2018-04-13T00:12:02.216Z,21.60
2018-04-13T00:13:07.737Z,20.00
2018-04-13T00:14:13.252Z,20.90
2018-04-13T00:15:18.762Z,21.80
2018-04-13T00:16:24.269Z,22.10
2018-04-13T00:17:29.787Z,22.20
2018-04-13T00:18:35.299Z,21.80
2018-04-13T00:19:40.831Z,21.90
2018-04-13T00:20:46.327Z,22.50
2018-04-13T00:21:51.841Z,23.50
2018-04-13T00:22:57.355Z,24.30
2018-04-13T00:24:02.867Z,25.00
2018-04-13T00:25:08.391Z,24.10
2018-04-13T00:26:13.895Z,23.80
2018-04-13T00:27:19.406Z,23.30
2018-04-13T00:28:24.926Z,22.90
2018-04-13T00:29:30.447Z,24.10
2018-04-13T00:30:35.953Z,23.30
2018-04-13T00:31:41.459Z,23.50
2018-04-13T00:32:46.968Z,20.10
2018-04-13T00:33:52.492Z,19.90
2018-04-13T00:34:58.001Z,21.10
2018-04-13T00:36:03.509Z,20.80
2018-04-13T00:37:09.025Z,19.30
2018-04-13T00:38:14.535Z,20.30
2018-04-13T00:39:20.058Z,19.40
2018-04-13T00:40:25.572Z,19.70
2018-04-13T00:41:31.074Z,21.00
2018-04-13T00:42:36.587Z,21.60
2018-04-13T00:43:42.100Z,21.00
2018-04-13T00:44:47.616Z,20.10
2018-04-13T00:45:53.140Z,20.90
2018-04-13T00:46:58.641Z,20.40
2018-04-13T00:48:04.152Z,21.50
2018-04-13T00:49:09.678Z,20.80
2018-04-13T00:50:15.182Z,20.90
2018-04-13T00:51:20.707Z,20.90
2018-04-13T00:52:26.206Z,22.10
2018-04-13T00:53:31.718Z,22.10
2018-04-13T00:54:37.235Z,23.10
2018-04-13T00:55:42.750Z,23.10
2018-04-13T00:56:48.269Z,22.00
2018-04-13T00:57:53.780Z,22.80
2018-04-13T00:58:59.288Z,23.50
2018-04-13T01:00:04.801Z,23.30
2018-04-13T01:01:10.333Z,23.30
2018-04-13T01:02:15.825Z,23.20
2018-04-13T01:03:21.336Z,24.00
2018-04-13T01:04:26.848Z,24.30
2018-04-13T01:05:32.372Z,24.00
2018-04-13T01:06:37.879Z,24.10
2018-04-13T01:07:43.389Z,24.30
2018-04-13T01:08:48.899Z,23.60
2018-04-13T01:09:54.419Z,23.90
2018-04-13T01:10:59.928Z,24.20
2018-04-13T01:12:05.440Z,24.90
2018-04-13T01:13:10.953Z,25.00
2018-04-13T01:14:16.466Z,22.40
2018-04-13T01:15:21.987Z,21.30
2018-04-13T01:16:27.492Z,20.30
2018-04-13T01:17:33.005Z,21.00
2018-04-13T01:18:38.516Z,20.60
2018-04-13T01:19:44.029Z,19.50
2018-04-13T01:20:49.551Z,20.80
2018-04-13T01:21:55.052Z,19.80
2018-04-13T01:23:00.565Z,20.90
2018-04-13T01:24:06.091Z,21.20
2018-04-13T01:25:11.594Z,21.90
2018-04-13T01:26:17.108Z,21.70
2018-04-13T01:27:22.622Z,21.80
2018-04-13T01:28:28.144Z,22.50
2018-04-13T01:29:33.646Z,23.20
2018-04-13T01:30:39.159Z,24.20
2018-04-13T01:31:44.669Z,24.40
2018-04-13T01:32:50.182Z,24.60
2018-04-13T01:33:55.703Z,24.80
2018-04-13T01:35:01.213Z,24.50
2018-04-13T01:36:06.728Z,24.00
2018-04-13T01:37:12.234Z,24.60
2018-04-13T01:38:17.750Z,25.20
2018-04-13T01:39:23.268Z,25.30
2018-04-13T01:40:28.774Z,26.00
2018-04-13T01:41:34.321Z,26.50
2018-04-13T01:42:39.802Z,27.70
2018-04-13T01:43:45.315Z,27.80
2018-04-13T01:44:50.828Z,28.50
2018-04-13T01:45:56.344Z,26.80
2018-04-13T01:47:01.847Z,23.50
2018-04-13T01:48:07.362Z,24.20
2018-04-13T01:49:12.875Z,23.20
2018-04-13T01:50:18.432Z,22.00
2018-04-13T01:51:23.905Z,23.10
2018-04-13T01:52:29.414Z,21.90
2018-04-13T01:53:34.928Z,21.40
2018-04-13T01:54:40.444Z,22.50
2018-04-13T01:55:45.955Z,22.20
2018-04-13T01:56:51.464Z,22.20
2018-04-13T01:57:56.979Z,22.20
2018-04-13T01:59:02.493Z,22.50
2018-04-13T02:00:08.003Z,22.40
2018-04-13T02:01:13.520Z,22.10
2018-04-13T02:02:19.031Z,22.00
2018-04-13T02:03:24.544Z,21.40
2018-04-13T02:04:30.054Z,21.70
2018-04-13T02:05:35.654Z,21.50
2018-04-13T02:06:41.081Z,21.30
2018-04-13T02:07:46.597Z,20.80
2018-04-13T02:08:52.148Z,21.30
2018-04-13T02:09:57.628Z,21.40
2018-04-13T02:11:03.129Z,21.60
2018-04-13T02:12:08.644Z,22.00
2018-04-13T02:13:14.164Z,20.90
2018-04-13T02:14:19.672Z,22.20
2018-04-13T02:15:25.190Z,25.00
2018-04-13T02:16:30.699Z,26.50
2018-04-13T02:17:36.209Z,26.60
2018-04-13T02:18:41.717Z,24.70
2018-04-13T02:19:47.231Z,25.00
2018-04-13T02:20:52.741Z,24.90
2018-04-13T02:21:58.254Z,25.30
2018-04-13T02:23:03.766Z,25.10
2018-04-13T02:24:09.278Z,26.20
2018-04-13T02:25:14.803Z,27.50
2018-04-13T02:26:20.312Z,26.50
2018-04-13T02:27:25.818Z,27.00
2018-04-13T02:28:31.337Z,24.20
2018-04-13T02:29:36.839Z,25.90
2018-04-13T02:30:42.365Z,25.00
2018-04-13T02:31:47.877Z,24.00
2018-04-13T02:32:53.385Z,23.40
2018-04-13T02:33:58.899Z,23.30
2018-04-13T02:35:04.418Z,23.20
2018-04-13T02:36:09.918Z,25.30
2018-04-13T02:37:15.430Z,25.30
2018-04-13T02:38:20.947Z,24.20
2018-04-13T02:39:26.453Z,24.60
2018-04-13T02:40:31.967Z,25.70
2018-04-13T02:41:37.483Z,27.30
2018-04-13T02:42:42.994Z,25.90
2018-04-13T02:43:48.505Z,26.50
2018-04-13T02:44:54.020Z,27.00
2018-04-13T02:45:59.540Z,29.30
2018-04-13T02:47:05.131Z,31.10
2018-04-13T02:48:10.555Z,31.90
2018-04-13T02:49:16.078Z,28.10
2018-04-13T02:50:21.582Z,28.70
2018-04-13T02:51:27.095Z,27.70
2018-04-13T02:52:32.603Z,28.70
2018-04-13T02:53:38.121Z,30.60
2018-04-13T02:54:43.633Z,30.40
2018-04-13T02:55:49.142Z,31.50
2018-04-13T02:56:54.659Z,32.20
2018-04-13T02:58:00.171Z,31.20
2018-04-13T02:59:05.679Z,31.20
2018-04-13T03:00:11.190Z,32.00
2018-04-13T03:01:16.705Z,32.00
2018-04-13T03:02:22.216Z,35.00
2018-04-13T03:03:27.731Z,34.00
2018-04-13T03:04:33.239Z,34.80
2018-04-13T03:05:38.752Z,36.60
2018-04-13T03:06:44.270Z,36.10
2018-04-13T03:07:49.780Z,35.00
2018-04-13T03:08:55.299Z,34.40
2018-04-13T03:10:00.803Z,32.90
2018-04-13T03:11:06.324Z,33.90
2018-04-13T03:12:11.838Z,35.70
2018-04-13T03:13:17.337Z,36.50
2018-04-13T03:14:22.851Z,36.20
2018-04-13T03:15:28.367Z,36.40
2018-04-13T03:16:33.880Z,36.70
2018-04-13T03:17:39.393Z,36.40
2018-04-13T03:18:44.901Z,32.60
2018-04-13T03:19:50.416Z,31.80
2018-04-13T03:20:55.926Z,31.50
2018-04-13T03:22:01.440Z,31.80
2018-04-13T03:23:06.954Z,33.40
2018-04-13T03:24:12.474Z,34.70
2018-04-13T03:25:17.991Z,35.30
2018-04-13T03:26:23.489Z,35.10
2018-04-13T03:27:29.013Z,34.20
2018-04-13T03:28:34.520Z,35.80
2018-04-13T03:29:40.026Z,36.10
2018-04-13T03:30:45.539Z,37.20
2018-04-13T03:31:51.054Z,37.10
2018-04-13T03:32:56.563Z,38.80
2018-04-13T03:34:02.077Z,38.00
2018-04-13T03:35:07.586Z,40.10
2018-04-13T03:36:13.103Z,37.80
2018-04-13T03:37:18.616Z,38.90
2018-04-13T03:38:24.128Z,41.90
2018-04-13T03:39:29.634Z,42.70
2018-04-13T03:40:35.147Z,41.40
2018-04-13T03:41:40.657Z,40.30
2018-04-13T03:42:46.180Z,41.90
2018-04-13T03:43:51.699Z,42.50
2018-04-13T03:44:57.198Z,40.20
2018-04-13T03:46:02.718Z,38.60
2018-04-13T03:47:08.277Z,40.10
2018-04-13T03:48:13.736Z,39.40
2018-04-13T03:49:19.251Z,39.70
2018-04-13T03:50:24.758Z,40.60
2018-04-13T03:51:30.274Z,42.30
2018-04-13T03:52:35.784Z,42.10
2018-04-13T03:53:41.296Z,41.90
2018-04-13T03:54:46.807Z,36.10
2018-04-13T03:55:52.325Z,30.70
2018-04-13T03:56:57.831Z,31.00
2018-04-13T03:58:03.341Z,36.30
2018-04-13T03:59:08.869Z,36.80
2018-04-13T04:00:14.366Z,39.70
2018-04-13T04:01:19.881Z,40.90
2018-04-13T04:02:25.392Z,41.40
2018-04-13T04:03:30.909Z,38.20
2018-04-13T04:04:36.525Z,37.90
2018-04-13T04:05:41.925Z,36.80
2018-04-13T04:06:47.439Z,37.50
2018-04-13T04:07:52.961Z,38.40
2018-04-13T04:08:58.464Z,37.20
2018-04-13T04:10:04.035Z,35.90
2018-04-13T04:11:09.487Z,34.40
2018-04-13T04:12:15.003Z,33.90
2018-04-13T04:13:20.514Z,33.70
2018-04-13T04:14:26.035Z,32.60
2018-04-13T04:15:31.535Z,32.40
2018-04-13T04:16:37.047Z,33.40
2018-04-13T04:17:42.566Z,29.90
2018-04-13T04:18:48.075Z,31.20
2018-04-13T04:19:53.583Z,31.60
2018-04-13T04:20:59.098Z,30.70
2018-04-13T04:22:04.608Z,30.70
2018-04-13T04:23:10.118Z,30.20
2018-04-13T04:24:15.631Z,29.90
2018-04-13T04:25:21.144Z,30.80
2018-04-13T04:26:26.653Z,34.10
2018-04-13T04:27:32.166Z,33.30
2018-04-13T04:28:37.681Z,37.30
2018-04-13T04:29:43.195Z,38.90
2018-04-13T04:30:48.700Z,35.60
2018-04-13T04:31:54.219Z,36.20
2018-04-13T04:32:59.727Z,35.90
2018-04-13T04:34:05.242Z,37.50
2018-04-13T04:35:10.749Z,37.90
2018-04-13T04:36:16.264Z,38.20
2018-04-13T04:37:21.776Z,39.10
2018-04-13T04:38:27.288Z,40.20
2018-04-13T04:39:32.797Z,39.40
2018-04-13T04:40:38.314Z,40.60
2018-04-13T04:41:43.819Z,41.70
2018-04-13T04:42:49.329Z,39.20
2018-04-13T04:43:54.845Z,43.00
2018-04-13T04:45:00.446Z,42.80
2018-04-13T04:46:05.879Z,41.20
2018-04-13T04:47:11.382Z,40.90
2018-04-13T04:48:16.908Z,39.10
2018-04-13T04:49:22.404Z,42.50
2018-04-13T04:50:27.928Z,42.90
2018-04-13T04:51:33.433Z,42.40
2018-04-13T04:52:38.940Z,43.00
2018-04-13T04:53:44.454Z,45.60
2018-04-13T04:54:49.966Z,44.10
2018-04-13T04:55:55.473Z,44.40
2018-04-13T04:57:00.987Z,48.60
2018-04-13T04:58:06.498Z,47.90
2018-04-13T04:59:12.017Z,46.80
2018-04-13T05:00:17.521Z,47.60
2018-04-13T05:01:23.031Z,48.70
2018-04-13T05:02:28.546Z,44.30
2018-04-13T05:03:34.067Z,45.10
2018-04-13T05:04:39.568Z,45.70
2018-04-13T05:05:45.078Z,44.40
2018-04-13T05:06:50.606Z,42.70
2018-04-13T05:07:56.107Z,39.80
2018-04-13T05:09:01.634Z,37.30
2018-04-13T05:10:07.131Z,37.20
2018-04-13T05:11:12.639Z,39.40
2018-04-13T05:12:18.157Z,42.00
2018-04-13T05:13:23.660Z,43.80
2018-04-13T05:14:29.178Z,46.20
2018-04-13T05:15:34.685Z,47.70
2018-04-13T05:16:40.199Z,48.20
2018-04-13T05:17:45.716Z,46.10
2018-04-13T05:18:51.222Z,45.90
2018-04-13T05:19:56.736Z,48.10
2018-04-13T05:21:02.254Z,47.30
2018-04-13T05:22:07.758Z,46.30
2018-04-13T05:23:13.271Z,44.60
2018-04-13T05:24:18.791Z,40.60
2018-04-13T05:25:24.296Z,42.00
2018-04-13T05:26:29.816Z,41.60
2018-04-13T05:27:35.321Z,40.60
2018-04-13T05:28:40.832Z,44.30
2018-04-13T05:29:46.346Z,42.00
2018-04-13T05:30:51.862Z,43.50
2018-04-13T05:31:57.367Z,44.00
2018-04-13T05:33:02.885Z,43.20
2018-04-13T05:34:08.390Z,43.70
2018-04-13T05:35:13.960Z,45.30
2018-04-13T05:36:19.420Z,46.50
2018-04-13T05:37:24.934Z,46.60
2018-04-13T05:38:30.441Z,43.70
2018-04-13T05:39:35.952Z,44.80
2018-04-13T05:40:41.471Z,43.80
2018-04-13T05:41:46.979Z,38.90
2018-04-13T05:42:52.488Z,39.90
2018-04-13T05:43:57.999Z,40.80
2018-04-13T05:45:03.523Z,39.10
2018-04-13T05:46:09.076Z,40.30
2018-04-13T05:47:14.540Z,41.00
2018-04-13T05:48:20.047Z,42.20
2018-04-13T05:49:25.563Z,42.10
2018-04-13T05:50:31.071Z,42.70
2018-04-13T05:51:36.588Z,45.20
2018-04-13T05:52:42.107Z,45.10
2018-04-13T05:53:47.613Z,46.70
2018-04-13T05:54:53.132Z,47.70
2018-04-13T05:55:58.633Z,48.50
2018-04-13T05:57:04.160Z,49.30
2018-04-13T05:58:09.659Z,50.00
2018-04-13T05:59:15.173Z,49.90
2018-04-13T06:00:20.687Z,48.80
2018-04-13T06:01:26.195Z,49.50
2018-04-13T06:02:31.715Z,51.20
2018-04-13T06:03:37.224Z,51.50
2018-04-13T06:04:42.739Z,51.90
2018-04-13T06:05:48.265Z,53.00
2018-04-13T06:06:53.873Z,53.10
2018-04-13T06:07:59.271Z,51.70
2018-04-13T06:09:04.785Z,54.10
2018-04-13T06:10:10.298Z,52.30
2018-04-13T06:11:15.830Z,53.30
2018-04-13T06:12:21.320Z,51.20
2018-04-13T06:13:26.882Z,50.80
2018-04-13T06:14:32.345Z,48.20
2018-04-13T06:15:37.853Z,47.00
2018-04-13T06:16:43.370Z,48.80
2018-04-13T06:17:48.880Z,48.20
2018-04-13T06:18:54.402Z,49.40
2018-04-13T06:19:59.903Z,48.80
2018-04-13T06:21:05.416Z,49.30
2018-04-13T06:22:10.930Z,48.80
2018-04-13T06:23:16.443Z,49.50
2018-04-13T06:24:22.031Z,50.60
2018-04-13T06:25:27.471Z,52.10
2018-04-13T06:26:32.978Z,52.60
2018-04-13T06:27:38.497Z,50.40
2018-04-13T06:28:44.016Z,50.30
2018-04-13T06:29:49.524Z,50.80
2018-04-13T06:30:55.036Z,51.50
2018-04-13T06:32:00.547Z,49.80
2018-04-13T06:33:06.061Z,50.00
2018-04-13T06:34:11.569Z,49.50
2018-04-13T06:35:17.084Z,50.50
2018-04-13T06:36:22.596Z,50.50
2018-04-13T06:37:28.109Z,50.40
2018-04-13T06:38:33.623Z,51.50
2018-04-13T06:39:39.137Z,53.70
2018-04-13T06:40:44.648Z,51.90
2018-04-13T06:41:50.166Z,51.00
2018-04-13T06:42:55.676Z,51.10
2018-04-13T06:44:01.272Z,49.80
2018-04-13T06:45:06.706Z,50.30
2018-04-13T06:46:12.215Z,51.60
2018-04-13T06:47:17.727Z,51.10
2018-04-13T06:48:23.241Z,52.20
2018-04-13T06:49:28.756Z,50.70
2018-04-13T06:50:34.278Z,50.80
2018-04-13T06:51:39.784Z,50.40
2018-04-13T06:52:45.297Z,51.60
2018-04-13T06:53:50.809Z,50.90
2018-04-13T06:54:56.322Z,51.20
2018-04-13T06:56:01.839Z,52.50
2018-04-13T06:57:07.353Z,52.10
2018-04-13T06:58:12.865Z,53.50
2018-04-13T06:59:18.383Z,52.90
2018-04-13T07:00:23.899Z,54.90
2018-04-13T07:01:29.414Z,53.50
2018-04-13T07:02:34.991Z,55.20
2018-04-13T07:03:40.456Z,54.90
2018-04-13T07:04:45.950Z,55.70
2018-04-13T07:05:51.460Z,55.40
2018-04-13T07:06:56.976Z,54.60
2018-04-13T07:08:02.497Z,56.60
2018-04-13T07:09:08.013Z,57.60
2018-04-13T07:10:13.519Z,57.70
2018-04-13T07:11:19.041Z,57.00
2018-04-13T07:12:24.543Z,57.50
2018-04-13T07:13:30.060Z,56.90
2018-04-13T07:14:35.578Z,57.70
2018-04-13T07:15:41.088Z,56.70
2018-04-13T07:16:46.599Z,55.70
2018-04-13T07:17:52.119Z,56.10
2018-04-13T07:18:57.629Z,55.10
2018-04-13T07:20:03.153Z,54.90
2018-04-13T07:21:08.672Z,53.90
2018-04-13T07:22:14.176Z,54.60
2018-04-13T07:23:19.685Z,53.50
2018-04-13T07:24:25.208Z,55.00
2018-04-13T07:25:30.721Z,54.50
2018-04-13T07:26:36.234Z,55.40
2018-04-13T07:27:41.765Z,53.40
2018-04-13T07:28:47.271Z,53.80
2018-04-13T07:29:52.773Z,52.50
2018-04-13T07:30:58.289Z,52.90
2018-04-13T07:32:03.804Z,53.10
2018-04-13T07:33:09.315Z,54.20
2018-04-13T07:34:15.100Z,55.30
2018-04-13T07:35:20.354Z,54.70
2018-04-13T07:36:25.860Z,55.00
2018-04-13T07:37:31.374Z,56.40
2018-04-13T07:38:37.365Z,52.80
2018-04-13T07:39:42.444Z,51.90
2018-04-13T07:40:47.918Z,52.10
2018-04-13T07:41:53.442Z,52.20
2018-04-13T07:42:58.954Z,52.50
2018-04-13T07:44:04.465Z,52.30
2018-04-13T07:45:10.099Z,51.80
2018-04-13T07:46:15.495Z,52.80
2018-04-13T07:47:21.087Z,51.40
2018-04-13T07:48:26.532Z,49.20
2018-04-13T07:49:32.039Z,48.20
2018-04-13T07:50:37.553Z,50.70
2018-04-13T07:51:43.070Z,49.80
2018-04-13T07:52:48.584Z,47.30
2018-04-13T07:53:54.096Z,46.20
2018-04-13T07:54:59.617Z,43.70
2018-04-13T07:56:05.132Z,44.10
2018-04-13T07:57:10.645Z,45.00
2018-04-13T07:58:16.175Z,44.10
2018-04-13T07:59:21.690Z,42.30
2018-04-13T08:00:27.189Z,38.40
2018-04-13T08:01:32.713Z,40.40
2018-04-13T08:02:38.218Z,40.40
2018-04-13T08:03:43.746Z,40.40
2018-04-13T08:04:49.251Z,45.10
2018-04-13T08:05:54.766Z,48.30
2018-04-13T08:07:00.286Z,50.60
2018-04-13T08:08:05.807Z,50.50
2018-04-13T08:09:11.314Z,50.20
2018-04-13T08:10:16.832Z,51.40
2018-04-13T08:11:22.343Z,51.30
2018-04-13T08:12:27.891Z,49.50
2018-04-13T08:13:33.383Z,49.60
2018-04-13T08:14:38.888Z,48.10
2018-04-13T08:15:44.425Z,46.20
2018-04-13T08:16:49.920Z,41.80
2018-04-13T08:17:55.454Z,40.70
2018-04-13T08:19:00.958Z,36.90
2018-04-13T08:20:06.474Z,36.30
2018-04-13T08:21:11.984Z,38.20
2018-04-13T08:22:17.579Z,38.30
2018-04-13T08:23:23.063Z,37.30
2018-04-13T08:24:28.533Z,39.50
2018-04-13T08:25:34.073Z,39.00
2018-04-13T08:26:39.564Z,40.10
2018-04-13T08:27:45.082Z,42.40
2018-04-13T08:28:50.592Z,40.80
2018-04-13T08:29:56.107Z,39.80
2018-04-13T08:31:01.629Z,40.30
2018-04-13T08:32:07.154Z,40.40
2018-04-13T08:33:12.653Z,41.00
2018-04-13T08:34:18.170Z,39.60
2018-04-13T08:35:23.728Z,36.10
2018-04-13T08:36:29.212Z,36.50
2018-04-13T08:37:34.735Z,35.60
2018-04-13T08:38:40.255Z,36.60
2018-04-13T08:39:45.749Z,36.80
2018-04-13T08:40:51.264Z,37.70
2018-04-13T08:41:56.780Z,38.00
2018-04-13T08:43:02.297Z,37.80
2018-04-13T08:44:07.817Z,39.20
2018-04-13T08:45:13.341Z,40.00
2018-04-13T08:46:18.845Z,39.30
2018-04-13T08:47:24.371Z,39.80
2018-04-13T08:48:29.875Z,39.40
2018-04-13T08:49:35.408Z,39.90
2018-04-13T08:50:40.912Z,38.80
2018-04-13T08:51:46.443Z,40.20
2018-04-13T08:52:52.007Z,39.90
2018-04-13T08:53:57.463Z,40.40
2018-04-13T08:55:02.977Z,38.30
2018-04-13T08:56:08.488Z,37.70
2018-04-13T08:57:14.008Z,35.80
2018-04-13T08:58:19.524Z,29.60
2018-04-13T08:59:25.046Z,30.70
2018-04-13T09:00:30.553Z,29.90
2018-04-13T09:01:36.069Z,30.20
2018-04-13T09:02:41.616Z,27.90
2018-04-13T09:03:47.101Z,25.50
2018-04-13T09:04:52.616Z,25.80
2018-04-13T09:05:58.134Z,25.00
2018-04-13T09:07:03.652Z,28.30
2018-04-13T09:08:09.175Z,30.70
2018-04-13T09:09:14.682Z,31.30
2018-04-13T09:10:20.201Z,29.60
2018-04-13T09:11:25.716Z,25.30
2018-04-13T09:12:31.229Z,25.10
2018-04-13T09:13:36.749Z,26.00
2018-04-13T09:14:42.266Z,24.20
2018-04-13T09:15:47.789Z,23.40
2018-04-13T09:16:53.307Z,23.10
2018-04-13T09:17:58.813Z,22.40
2018-04-13T09:19:04.330Z,21.70
2018-04-13T09:20:09.863Z,21.70
2018-04-13T09:21:16.021Z,20.60
2018-04-13T09:22:20.877Z,21.00
2018-04-13T09:23:27.100Z,21.30
2018-04-13T09:24:31.906Z,20.30
2018-04-13T09:25:37.428Z,19.80
2018-04-13T09:26:42.939Z,20.50
2018-04-13T09:27:48.463Z,21.10
2018-04-13T09:28:53.976Z,22.70
2018-04-13T09:29:59.488Z,22.90
2018-04-13T09:31:05.006Z,23.60
2018-04-13T09:32:10.525Z,23.00
2018-04-13T09:33:16.043Z,23.30
2018-04-13T09:34:21.555Z,23.80
2018-04-13T09:35:27.082Z,23.90
2018-04-13T09:36:32.593Z,22.00
2018-04-13T09:37:38.108Z,22.40
2018-04-13T09:38:43.628Z,23.10
2018-04-13T09:39:49.139Z,23.30
2018-04-13T09:40:54.655Z,22.50
2018-04-13T09:42:00.176Z,21.10
2018-04-13T09:43:05.687Z,22.10
2018-04-13T09:44:11.210Z,20.80
2018-04-13T09:45:16.717Z,20.10
2018-04-13T09:46:22.234Z,19.80
2018-04-13T09:47:27.754Z,19.20
2018-04-13T09:48:33.272Z,20.90
2018-04-13T09:49:38.781Z,19.80
2018-04-13T09:50:44.311Z,19.20
2018-04-13T09:51:49.820Z,19.00
2018-04-13T09:52:55.330Z,19.90
2018-04-13T09:54:00.844Z,18.40
2018-04-13T09:55:06.361Z,18.50
2018-04-13T09:56:11.876Z,18.70
2018-04-13T09:57:17.400Z,18.90
2018-04-13T09:58:22.910Z,20.20
2018-04-13T09:59:28.427Z,19.50
2018-04-13T10:00:33.944Z,20.20
2018-04-13T10:01:39.464Z,19.30
2018-04-13T10:02:44.974Z,18.80
2018-04-13T10:03:50.487Z,20.30
2018-04-13T10:04:56.007Z,21.10
2018-04-13T10:06:01.524Z,23.40
2018-04-13T10:07:07.039Z,23.00
2018-04-13T10:08:12.552Z,21.90
2018-04-13T10:09:18.069Z,22.50
2018-04-13T10:10:23.592Z,21.70
2018-04-13T10:11:29.099Z,21.30
2018-04-13T10:12:34.620Z,22.00
2018-04-13T10:13:40.142Z,21.40
2018-04-13T10:14:45.661Z,21.70
2018-04-13T10:15:51.179Z,21.90
2018-04-13T10:16:56.683Z,22.00
2018-04-13T10:18:02.220Z,22.90
2018-04-13T10:19:07.727Z,22.90
2018-04-13T10:20:13.226Z,22.70
2018-04-13T10:21:18.744Z,23.60
2018-04-13T10:22:24.261Z,23.90
2018-04-13T10:23:29.777Z,22.60
2018-04-13T10:24:35.294Z,22.50
2018-04-13T10:25:40.823Z,22.60
2018-04-13T10:26:46.326Z,22.00
2018-04-13T10:27:51.847Z,22.10
2018-04-13T10:28:57.360Z,22.80
2018-04-13T10:30:02.879Z,21.70
2018-04-13T10:31:08.390Z,20.10
2018-04-13T10:32:13.909Z,18.80
2018-04-13T10:33:19.426Z,19.70
2018-04-13T10:34:24.936Z,18.50
2018-04-13T10:35:30.453Z,18.60
2018-04-13T10:36:35.970Z,18.00
2018-04-13T10:37:41.497Z,18.40
2018-04-13T10:38:47.003Z,18.60
2018-04-13T10:39:52.521Z,18.20
2018-04-13T10:40:58.050Z,18.30
2018-04-13T10:42:03.551Z,18.80
2018-04-13T10:43:09.065Z,18.70
2018-04-13T10:44:14.584Z,19.00
2018-04-13T10:45:20.099Z,19.90
2018-04-13T10:46:25.622Z,19.00
2018-04-13T10:47:31.129Z,19.40
2018-04-13T10:48:36.649Z,19.70
2018-04-13T10:49:42.164Z,20.50
2018-04-13T10:50:47.679Z,21.40
2018-04-13T10:51:53.205Z,21.40
2018-04-13T10:52:58.713Z,22.50
2018-04-13T10:54:04.242Z,23.40
2018-04-13T10:55:09.746Z,22.50
2018-04-13T10:56:15.268Z,24.00
2018-04-13T10:57:20.781Z,24.60
2018-04-13T10:58:26.367Z,24.40
2018-04-13T10:59:31.811Z,24.80
2018-04-13T11:00:37.322Z,24.20
2018-04-13T11:01:42.860Z,23.90
2018-04-13T11:02:48.412Z,23.80
2018-04-13T11:03:53.888Z,23.80
2018-04-13T11:04:59.391Z,23.90
2018-04-13T11:06:04.910Z,23.10
2018-04-13T11:07:10.427Z,23.70
2018-04-13T11:08:15.953Z,24.20
2018-04-13T11:09:21.453Z,24.20
2018-04-13T11:10:26.978Z,25.20
2018-04-13T11:11:32.493Z,24.60
2018-04-13T11:12:38.007Z,24.80
2018-04-13T11:13:43.518Z,26.30
2018-04-13T11:14:49.042Z,25.80
2018-04-13T11:15:54.559Z,25.10
2018-04-13T11:17:00.072Z,25.90
2018-04-13T11:18:05.586Z,25.70
2018-04-13T11:19:11.099Z,25.40
2018-04-13T11:20:16.617Z,25.80
2018-04-13T11:21:22.142Z,25.90
2018-04-13T11:22:27.648Z,25.50
2018-04-13T11:23:33.164Z,26.80
2018-04-13T11:24:38.687Z,25.80
2018-04-13T11:25:44.197Z,25.10
2018-04-13T11:26:49.719Z,25.40
2018-04-13T11:27:56.135Z,26.00
2018-04-13T11:29:00.745Z,25.00
2018-04-13T11:30:06.273Z,26.50
2018-04-13T11:31:11.779Z,25.10
2018-04-13T11:32:17.300Z,25.90
2018-04-13T11:33:22.814Z,25.80
2018-04-13T11:34:28.428Z,25.40
2018-04-13T11:35:33.857Z,26.30
2018-04-13T11:36:39.364Z,26.20
2018-04-13T11:37:44.879Z,26.50
2018-04-13T11:38:50.398Z,27.30
2018-04-13T11:39:55.920Z,27.60
2018-04-13T11:41:01.427Z,27.10
2018-04-13T11:42:06.952Z,27.70
2018-04-13T11:43:12.458Z,27.90
2018-04-13T11:44:17.978Z,25.80
2018-04-13T11:45:23.493Z,24.20
2018-04-13T11:46:29.015Z,25.70
2018-04-13T11:47:34.536Z,23.60
2018-04-13T11:48:40.044Z,24.50
2018-04-13T11:49:45.557Z,23.00
2018-04-13T11:50:51.079Z,23.00
2018-04-13T11:51:56.604Z,22.60
2018-04-13T11:53:02.213Z,23.50
2018-04-13T11:54:07.619Z,23.50
2018-04-13T11:55:13.138Z,22.60
2018-04-13T11:56:18.663Z,23.20
2018-04-13T11:57:24.173Z,23.00
2018-04-13T11:58:29.700Z,23.30
2018-04-13T11:59:35.207Z,23.30
2018-04-13T12:00:40.724Z,23.30
2018-04-13T12:01:46.237Z,22.00
2018-04-13T12:02:51.767Z,20.80
2018-04-13T12:03:57.281Z,21.70
2018-04-13T12:05:02.785Z,21.30
2018-04-13T12:06:08.306Z,20.90
2018-04-13T12:07:13.884Z,20.60
2018-04-13T12:08:19.339Z,20.40
2018-04-13T12:09:24.880Z,20.20
2018-04-13T12:10:30.431Z,20.50
2018-04-13T12:11:35.886Z,19.60
2018-04-13T12:12:41.411Z,19.80
2018-04-13T12:13:46.933Z,20.40
2018-04-13T12:14:52.438Z,20.20
2018-04-13T12:15:57.953Z,20.90
2018-04-13T12:17:03.476Z,20.70
2018-04-13T12:18:09.004Z,21.00
2018-04-13T12:19:14.517Z,21.70
2018-04-13T12:20:20.022Z,20.60
2018-04-13T12:21:25.544Z,20.50
2018-04-13T12:22:31.063Z,21.30
2018-04-13T12:23:36.584Z,20.70
2018-04-13T12:24:42.088Z,20.00
2018-04-13T12:25:48.106Z,21.20
2018-04-13T12:26:53.128Z,20.30
2018-04-13T12:27:58.645Z,19.60
2018-04-13T12:29:04.187Z,20.00
2018-04-13T12:30:09.688Z,19.40
2018-04-13T12:31:15.223Z,18.80
2018-04-13T12:32:20.705Z,18.30
2018-04-13T12:33:26.219Z,18.80
2018-04-13T12:34:31.737Z,19.60
2018-04-13T12:35:37.260Z,18.70
2018-04-13T12:36:42.768Z,18.30
2018-04-13T12:37:48.288Z,18.30
2018-04-13T12:38:53.880Z,18.10
2018-04-13T12:39:59.384Z,17.30
2018-04-13T12:41:04.839Z,16.80
2018-04-13T12:42:10.366Z,17.70
2018-04-13T12:43:15.878Z,18.10
2018-04-13T12:44:21.391Z,18.80
2018-04-13T12:45:26.906Z,18.90
2018-04-13T12:46:32.419Z,18.40
2018-04-13T12:47:37.942Z,17.80
2018-04-13T12:48:43.453Z,19.10
2018-04-13T12:49:48.968Z,18.60
2018-04-13T12:50:54.495Z,19.60
2018-04-13T12:52:00.008Z,18.80
2018-04-13T12:53:05.555Z,18.00
2018-04-13T12:54:11.034Z,18.20
2018-04-13T12:55:16.556Z,18.10
2018-04-13T12:56:22.120Z,17.50
2018-04-13T12:57:27.586Z,18.60
2018-04-13T12:58:33.104Z,19.50
2018-04-13T12:59:38.617Z,20.80
2018-04-13T13:00:44.166Z,20.70
2018-04-13T13:01:49.657Z,20.00
2018-04-13T13:02:55.170Z,20.00
2018-04-13T13:04:00.703Z,19.50
2018-04-13T13:05:06.219Z,20.60
2018-04-13T13:06:11.719Z,20.10
2018-04-13T13:07:17.333Z,20.70
2018-04-13T13:08:22.753Z,20.50
2018-04-13T13:09:28.368Z,20.30
2018-04-13T13:10:33.790Z,19.70
2018-04-13T13:11:39.316Z,19.90
2018-04-13T13:12:44.819Z,19.40
2018-04-13T13:13:50.335Z,19.00
2018-04-13T13:14:55.867Z,19.20
2018-04-13T13:16:01.365Z,18.60
2018-04-13T13:17:06.889Z,19.90
2018-04-13T13:18:12.401Z,19.00
2018-04-13T13:19:17.923Z,18.80
2018-04-13T13:20:23.431Z,18.40
2018-04-13T13:21:28.951Z,18.70
2018-04-13T13:22:34.513Z,18.50
2018-04-13T13:23:39.998Z,18.60
2018-04-13T13:24:45.509Z,20.30
2018-04-13T13:25:51.016Z,19.60
2018-04-13T13:26:56.528Z,18.90
2018-04-13T13:28:02.051Z,18.00
2018-04-13T13:29:07.569Z,19.10
2018-04-13T13:30:13.081Z,19.40
2018-04-13T13:31:18.598Z,19.30
2018-04-13T13:32:24.115Z,19.50
2018-04-13T13:33:29.632Z,19.60
2018-04-13T13:34:35.150Z,19.30
2018-04-13T13:35:40.668Z,20.70
2018-04-13T13:36:46.181Z,20.90
2018-04-13T13:37:51.704Z,19.80
2018-04-13T13:38:57.211Z,20.00
2018-04-13T13:40:02.740Z,19.10
2018-04-13T13:41:08.245Z,19.40
2018-04-13T13:42:13.761Z,19.90
2018-04-13T13:43:19.275Z,18.20
2018-04-13T13:44:24.792Z,18.70
2018-04-13T13:45:30.314Z,17.80
2018-04-13T13:46:35.830Z,26.60
2018-04-13T13:47:41.348Z,23.90
2018-04-13T13:48:46.868Z,34.60
2018-04-13T13:49:52.390Z,118.10
2018-04-13T13:50:57.886Z,44.40
2018-04-13T13:52:03.409Z,19.80
2018-04-13T13:53:08.930Z,17.60
2018-04-13T13:54:14.438Z,16.40
2018-04-13T13:55:19.960Z,15.80
2018-04-13T13:56:25.472Z,16.10
2018-04-13T13:57:30.997Z,16.80
2018-04-13T13:58:36.504Z,16.60
2018-04-13T13:59:42.021Z,16.60
2018-04-13T14:00:47.537Z,17.20
2018-04-13T14:01:53.070Z,17.00
2018-04-13T14:02:58.576Z,17.50